createdAt,value
2019-03-02T00:02:25.576Z,9.62
2019-03-02T00:04:55.822Z,9.63
2019-03-02T00:07:26.500Z,9.63
2019-03-02T00:09:57.195Z,9.61
2019-03-02T00:12:28.855Z,9.61
2019-03-02T00:15:00.359Z,9.70
2019-03-02T00:17:31.193Z,9.70
2019-03-02T00:20:02.038Z,9.66
2019-03-02T00:22:32.307Z,9.64
2019-03-02T00:25:04.357Z,9.59
2019-03-02T00:27:35.043Z,9.60
2019-03-02T00:30:06.104Z,9.54
2019-03-02T00:32:37.140Z,9.49
2019-03-02T00:35:08.253Z,9.38
2019-03-02T00:37:39.012Z,9.35
2019-03-02T00:40:09.589Z,9.26
2019-03-02T00:42:40.243Z,9.28
2019-03-02T00:45:14.125Z,9.25
2019-03-02T00:47:43.694Z,9.27
2019-03-02T00:50:14.571Z,9.29
2019-03-02T00:52:45.086Z,9.29
2019-03-02T00:55:15.534Z,9.29
2019-03-02T00:57:46.000Z,9.33
2019-03-02T01:00:16.824Z,9.33
2019-03-02T01:02:47.777Z,9.39
2019-03-02T01:05:18.339Z,9.49
2019-03-02T01:07:49.036Z,9.49
2019-03-02T01:10:22.630Z,9.49
2019-03-02T01:12:51.734Z,9.61
2019-03-02T01:15:22.287Z,9.61
2019-03-02T01:17:53.314Z,9.63
2019-03-02T01:20:24.945Z,9.53
2019-03-02T01:22:55.905Z,9.31
2019-03-02T01:25:26.425Z,9.23
2019-03-02T01:27:56.975Z,9.14
2019-03-02T01:30:29.948Z,8.92
2019-03-02T01:32:59.826Z,8.75
2019-03-02T01:35:30.569Z,8.60
2019-03-02T01:38:01.107Z,8.52
2019-03-02T01:40:31.652Z,8.43
2019-03-02T01:43:04.933Z,8.39
2019-03-02T01:45:34.622Z,8.39
2019-03-02T01:48:05.018Z,8.39
2019-03-02T01:50:35.432Z,8.39
2019-03-02T01:53:09.902Z,8.39
2019-03-02T01:55:38.993Z,8.38
2019-03-02T01:58:09.474Z,8.40
2019-03-02T02:00:40.065Z,8.46
2019-03-02T02:03:12.097Z,8.42
2019-03-02T02:05:43.144Z,8.47
2019-03-02T02:08:14.082Z,8.49
2019-03-02T02:10:44.577Z,8.46
2019-03-02T02:13:14.938Z,8.49
2019-03-02T02:15:45.510Z,8.46
2019-03-02T02:18:16.033Z,8.44
2019-03-02T02:20:46.811Z,8.46
2019-03-02T02:23:19.209Z,8.51
2019-03-02T02:25:49.713Z,8.58
2019-03-02T02:28:20.222Z,8.61
2019-03-02T02:30:50.796Z,8.71
2019-03-02T02:33:21.595Z,8.81
2019-03-02T02:35:52.555Z,8.84
2019-03-02T02:38:23.613Z,8.88
2019-03-02T02:40:54.366Z,8.97
2019-03-02T02:43:25.077Z,9.01
2019-03-02T02:45:55.988Z,9.09
2019-03-02T02:48:31.206Z,9.12
2019-03-02T02:50:59.341Z,9.23
2019-03-02T02:53:33.314Z,9.24
2019-03-02T02:56:03.995Z,9.29
2019-03-02T02:58:34.446Z,9.29
2019-03-02T03:01:07.035Z,9.36
2019-03-02T03:03:39.262Z,9.31
2019-03-02T03:06:10.108Z,9.19
2019-03-02T03:09:09.632Z,9.19
2019-03-02T03:11:43.723Z,9.14
2019-03-02T03:14:10.165Z,9.11
2019-03-02T03:16:40.696Z,8.99
2019-03-02T03:19:11.656Z,8.95
2019-03-02T03:21:42.109Z,9.03
2019-03-02T03:24:12.926Z,9.13
2019-03-02T03:26:45.410Z,9.27
2019-03-02T03:29:15.980Z,9.29
2019-03-02T03:31:46.798Z,9.29
2019-03-02T03:34:29.226Z,9.31
2019-03-02T03:36:50.606Z,9.30
2019-03-02T03:39:21.342Z,9.29
2019-03-02T03:41:52.408Z,9.31
2019-03-02T03:44:26.392Z,9.14
2019-03-02T03:46:56.065Z,9.14
2019-03-02T03:49:29.997Z,9.14
2019-03-02T03:52:04.055Z,9.14
2019-03-02T03:54:34.540Z,9.09
2019-03-02T03:57:05.117Z,9.01
2019-03-02T03:59:35.748Z,9.00
2019-03-02T04:02:06.974Z,8.94
2019-03-02T04:04:37.999Z,8.81
2019-03-02T04:07:08.745Z,8.71
2019-03-02T04:09:42.885Z,8.72
2019-03-02T04:12:12.204Z,8.76
2019-03-02T04:14:42.811Z,8.77
2019-03-02T04:17:13.284Z,8.75
2019-03-02T04:19:43.785Z,8.75
2019-03-02T04:22:15.231Z,8.78
2019-03-02T04:24:46.281Z,8.79
2019-03-02T04:27:17.222Z,8.87
2019-03-02T04:29:49.869Z,8.86
2019-03-02T04:32:27.083Z,8.91
2019-03-02T04:34:54.307Z,9.01
2019-03-02T04:37:25.402Z,8.98
2019-03-02T04:39:57.446Z,8.93
2019-03-02T04:42:28.480Z,8.94
2019-03-02T04:45:01.609Z,8.90
2019-03-02T04:47:31.286Z,8.90
2019-03-02T04:50:01.994Z,8.86
2019-03-02T04:52:32.795Z,8.86
2019-03-02T04:55:03.563Z,8.89
2019-03-02T04:57:36.182Z,8.90
2019-03-02T05:00:09.248Z,8.96
2019-03-02T05:02:40.219Z,8.97
2019-03-02T05:05:11.207Z,9.14
2019-03-02T05:07:41.974Z,9.14
2019-03-02T05:10:13.215Z,9.24
2019-03-02T05:12:43.749Z,9.25
2019-03-02T05:15:17.672Z,9.24
2019-03-02T05:17:48.315Z,9.24
2019-03-02T05:20:20.125Z,9.16
2019-03-02T05:22:54.833Z,9.09
2019-03-02T05:25:24.403Z,9.01
2019-03-02T05:27:56.615Z,9.01
2019-03-02T05:30:30.462Z,9.02
2019-03-02T05:33:00.119Z,9.03
2019-03-02T05:35:30.563Z,9.00
2019-03-02T05:38:01.302Z,9.00
2019-03-02T05:40:31.926Z,8.99
2019-03-02T05:43:02.616Z,9.02
2019-03-02T05:45:33.256Z,8.88
2019-03-02T05:48:04.873Z,8.81
2019-03-02T05:50:35.555Z,8.70
2019-03-02T05:53:05.948Z,8.65
2019-03-02T05:55:36.747Z,8.58
2019-03-02T05:58:07.196Z,8.49
2019-03-02T06:00:38.944Z,8.52
2019-03-02T06:03:09.825Z,8.56
2019-03-02T06:05:40.375Z,8.59
2019-03-02T06:08:11.003Z,8.67
2019-03-02T06:10:41.471Z,8.67
2019-03-02T06:13:12.153Z,8.63
2019-03-02T06:15:43.265Z,8.66
2019-03-02T06:18:14.832Z,8.63
2019-03-02T06:20:45.416Z,8.73
2019-03-02T06:23:15.820Z,8.73
2019-03-02T06:25:46.653Z,8.77
2019-03-02T06:28:19.625Z,8.77
2019-03-02T06:30:50.076Z,8.78
2019-03-02T06:33:33.174Z,8.81
2019-03-02T06:36:08.792Z,8.63
2019-03-02T06:38:38.277Z,8.70
2019-03-02T06:41:08.612Z,8.85
2019-03-02T06:43:39.214Z,8.85
2019-03-02T06:46:09.464Z,8.94
2019-03-02T06:48:41.491Z,9.04
2019-03-02T06:51:13.078Z,9.04
2019-03-02T06:53:43.665Z,9.18
2019-03-02T06:56:15.743Z,9.22
2019-03-02T06:58:46.848Z,9.22
2019-03-02T07:01:20.828Z,9.02
2019-03-02T07:03:49.401Z,8.63
2019-03-02T07:06:20.458Z,8.63
2019-03-02T07:08:50.777Z,8.73
2019-03-02T07:11:21.203Z,8.70
2019-03-02T07:13:53.507Z,8.71
2019-03-02T07:16:24.516Z,8.84
2019-03-02T07:19:17.608Z,8.49
2019-03-02T07:21:48.414Z,8.41
2019-03-02T07:24:19.075Z,8.32
2019-03-02T07:26:51.598Z,8.37
2019-03-02T07:29:22.168Z,8.51
2019-03-02T07:31:53.173Z,8.37
2019-03-02T07:34:28.579Z,8.21
2019-03-02T07:36:59.164Z,8.26
2019-03-02T07:39:32.726Z,8.22
2019-03-02T07:42:03.168Z,7.91
2019-03-02T07:44:33.621Z,7.78
2019-03-02T07:47:04.675Z,7.79
2019-03-02T07:49:35.197Z,7.39
2019-03-02T07:52:06.147Z,7.33
2019-03-02T07:54:38.804Z,7.38
2019-03-02T07:57:10.035Z,7.26
2019-03-02T07:59:40.350Z,7.10
2019-03-02T08:02:11.519Z,6.91
2019-03-02T08:04:42.315Z,6.79
2019-03-02T08:07:12.802Z,6.65
2019-03-02T08:09:43.339Z,6.55
2019-03-02T08:12:13.881Z,6.52
2019-03-02T08:14:47.768Z,6.45
2019-03-02T08:17:18.205Z,6.38
2019-03-02T08:19:51.737Z,6.38
2019-03-02T08:22:24.863Z,6.28
2019-03-02T08:24:57.976Z,6.32
2019-03-02T08:27:34.697Z,6.26
2019-03-02T08:30:07.583Z,6.16
2019-03-02T08:32:42.456Z,6.02
2019-03-02T08:35:17.206Z,6.11
2019-03-02T08:37:51.177Z,6.04
2019-03-02T08:40:24.638Z,6.09
2019-03-02T08:42:58.061Z,6.08
2019-03-02T08:45:32.394Z,6.04
2019-03-02T08:48:05.942Z,6.07
2019-03-02T08:50:40.297Z,6.07
2019-03-02T08:53:12.828Z,5.84
2019-03-02T08:55:43.640Z,5.80
2019-03-02T08:58:14.344Z,5.87
2019-03-02T09:00:45.044Z,5.98
2019-03-02T09:03:15.463Z,5.97
2019-03-02T09:05:51.422Z,5.91
2019-03-02T09:08:18.403Z,5.94
2019-03-02T09:10:50.133Z,5.89
2019-03-02T09:13:20.964Z,5.77
2019-03-02T09:15:51.707Z,5.44
2019-03-02T09:18:22.811Z,5.50
2019-03-02T09:20:53.336Z,5.59
2019-03-02T09:23:24.337Z,5.58
2019-03-02T09:25:54.888Z,5.51
2019-03-02T09:28:25.236Z,5.42
2019-03-02T09:30:58.757Z,5.59
2019-03-02T09:33:31.531Z,5.63
2019-03-02T09:36:01.949Z,5.65
2019-03-02T09:38:32.470Z,5.77
2019-03-02T09:41:03.017Z,5.70
2019-03-02T09:43:33.441Z,5.81
2019-03-02T09:46:04.054Z,5.96
2019-03-02T09:48:35.142Z,5.87
2019-03-02T09:51:06.152Z,5.91
2019-03-02T09:53:36.683Z,5.89
2019-03-02T09:56:07.212Z,5.85
2019-03-02T09:58:38.296Z,5.77
2019-03-02T10:01:08.902Z,5.81
2019-03-02T10:03:40.412Z,5.81
2019-03-02T10:06:11.351Z,5.81
2019-03-02T10:08:42.470Z,5.78
2019-03-02T10:11:13.131Z,5.70
2019-03-02T10:13:43.783Z,5.61
2019-03-02T10:16:14.974Z,5.51
2019-03-02T10:18:49.824Z,5.50
2019-03-02T10:21:18.742Z,5.43
2019-03-02T10:23:49.183Z,5.48
2019-03-02T10:26:20.921Z,5.53
2019-03-02T10:28:51.592Z,5.66
2019-03-02T10:31:23.598Z,5.76
2019-03-02T10:33:54.243Z,5.84
2019-03-02T10:36:25.692Z,5.82
2019-03-02T10:38:57.537Z,5.75
2019-03-02T10:41:28.117Z,5.67
2019-03-02T10:43:58.907Z,5.63
2019-03-02T10:46:29.750Z,5.51
2019-03-02T10:49:00.281Z,5.64
2019-03-02T10:51:33.992Z,5.68
2019-03-02T10:54:03.029Z,5.78
2019-03-02T10:56:33.363Z,5.76
2019-03-02T10:59:04.134Z,5.81
2019-03-02T11:01:35.038Z,5.96
2019-03-02T11:04:24.504Z,5.95
2019-03-02T11:07:13.690Z,5.93
2019-03-02T11:09:56.802Z,5.94
2019-03-02T11:12:52.216Z,6.27
2019-03-02T11:15:34.623Z,6.45
2019-03-02T11:18:23.793Z,6.47
2019-03-02T11:21:01.287Z,6.52
2019-03-02T11:23:54.720Z,6.67
2019-03-02T11:26:39.514Z,6.54
2019-03-02T11:29:50.582Z,6.41
2019-03-02T11:32:27.691Z,6.31
2019-03-02T11:35:16.753Z,6.32
2019-03-02T11:38:08.822Z,6.30
2019-03-02T11:41:04.877Z,6.32
2019-03-02T11:43:42.284Z,6.36
2019-03-02T11:46:40.811Z,6.37
2019-03-02T11:49:34.863Z,6.44
2019-03-02T11:52:35.019Z,6.47
2019-03-02T11:55:15.994Z,6.37
2019-03-02T11:58:03.835Z,6.29
2019-03-02T12:01:00.674Z,6.41
2019-03-02T12:03:41.932Z,6.62
2019-03-02T12:06:37.904Z,6.64
2019-03-02T12:09:31.740Z,6.73
2019-03-02T12:12:36.172Z,6.69
2019-03-02T12:15:20.657Z,6.62
2019-03-02T12:18:12.793Z,6.51
2019-03-02T12:21:04.647Z,6.58
2019-03-02T12:23:57.243Z,6.76
2019-03-02T12:26:49.681Z,6.74
2019-03-02T12:29:46.030Z,6.70
2019-03-02T12:32:32.334Z,6.87
2019-03-02T12:35:15.441Z,6.82
2019-03-02T12:38:11.677Z,6.74
2019-03-02T12:40:59.925Z,6.78
2019-03-02T12:43:45.445Z,6.91
2019-03-02T12:46:33.551Z,7.07
2019-03-02T12:49:34.816Z,6.97
2019-03-02T12:52:15.801Z,6.86
2019-03-02T12:55:10.680Z,6.87
2019-03-02T12:58:00.705Z,6.91
2019-03-02T13:00:48.917Z,6.87
2019-03-02T13:03:44.227Z,6.72
2019-03-02T13:06:20.685Z,6.76
2019-03-02T13:09:08.640Z,6.95
2019-03-02T13:11:50.531Z,6.94
2019-03-02T13:14:38.886Z,6.80
2019-03-02T13:17:22.569Z,6.52
2019-03-02T13:20:05.326Z,6.44
2019-03-02T13:22:54.990Z,6.43
2019-03-02T13:25:44.379Z,6.36
2019-03-02T13:28:36.966Z,6.36
2019-03-02T13:31:31.013Z,6.49
2019-03-02T13:34:20.154Z,6.44
2019-03-02T13:37:02.745Z,6.41
2019-03-02T13:39:51.117Z,6.56
2019-03-02T13:42:37.748Z,6.55
2019-03-02T13:45:46.484Z,6.50
2019-03-02T13:48:25.698Z,6.53
2019-03-02T13:51:14.165Z,6.59
2019-03-02T13:54:06.713Z,6.53
2019-03-02T13:57:04.845Z,6.50
2019-03-02T13:59:53.396Z,6.51
2019-03-02T14:02:42.452Z,6.53
2019-03-02T14:05:29.320Z,6.75
2019-03-02T14:08:26.596Z,6.85
2019-03-02T14:11:25.169Z,6.98
2019-03-02T14:14:08.174Z,7.00
2019-03-02T14:16:55.820Z,7.13
2019-03-02T14:19:48.669Z,7.07
2019-03-02T14:22:38.043Z,6.99
2019-03-02T14:25:30.824Z,6.94
2019-03-02T14:28:20.686Z,6.93
2019-03-02T14:31:19.903Z,6.85
2019-03-02T14:34:07.273Z,6.73
2019-03-02T14:37:14.814Z,6.49
2019-03-02T14:40:04.187Z,6.16
2019-03-02T14:42:46.179Z,6.07
2019-03-02T14:45:35.657Z,6.01
2019-03-02T14:48:35.382Z,6.04
2019-03-02T14:51:24.535Z,6.05
2019-03-02T14:54:08.987Z,6.13
2019-03-02T14:56:59.295Z,6.10
2019-03-02T14:59:52.550Z,6.03
2019-03-02T15:02:52.440Z,5.83
2019-03-02T15:05:40.206Z,5.78
2019-03-02T15:08:21.125Z,5.71
2019-03-02T15:11:07.731Z,5.69
2019-03-02T15:14:06.732Z,5.65
2019-03-02T15:16:43.497Z,5.47
2019-03-02T15:19:56.169Z,5.48
2019-03-02T15:22:48.772Z,5.47
2019-03-02T15:25:40.095Z,5.39
2019-03-02T15:28:33.902Z,5.33
2019-03-02T15:31:26.621Z,5.23
2019-03-02T15:34:18.761Z,5.18
2019-03-02T15:37:07.015Z,5.13
2019-03-02T15:39:54.996Z,5.03
2019-03-02T15:42:47.482Z,5.04
2019-03-02T15:45:26.282Z,4.99
2019-03-02T15:48:04.131Z,4.98
2019-03-02T15:50:44.191Z,4.99
2019-03-02T15:53:25.444Z,4.97
2019-03-02T15:56:04.913Z,4.93
2019-03-02T15:58:55.770Z,4.90
2019-03-02T16:01:33.453Z,4.91
2019-03-02T16:04:24.714Z,4.81
2019-03-02T16:07:20.551Z,4.73
2019-03-02T16:10:13.199Z,4.67
2019-03-02T16:12:53.344Z,4.72
2019-03-02T16:15:49.900Z,4.59
2019-03-02T16:18:39.693Z,4.59
2019-03-02T16:21:21.222Z,4.53
2019-03-02T16:24:19.898Z,4.53
2019-03-02T16:27:15.050Z,4.51
2019-03-02T16:30:10.159Z,4.48
2019-03-02T16:33:06.699Z,4.42
2019-03-02T16:36:15.121Z,4.34
2019-03-02T16:39:02.813Z,4.28
2019-03-02T16:41:50.581Z,4.25
2019-03-02T16:44:40.574Z,4.20
2019-03-02T16:47:28.818Z,4.16
2019-03-02T16:50:16.886Z,4.16
2019-03-02T16:53:08.812Z,4.13
2019-03-02T16:55:58.478Z,4.16
2019-03-02T16:59:05.999Z,4.08
2019-03-02T17:01:45.949Z,4.04
2019-03-02T17:04:46.093Z,4.01
2019-03-02T17:07:38.634Z,4.02
2019-03-02T17:10:34.706Z,4.06
2019-03-02T17:13:45.429Z,3.94
2019-03-02T17:16:28.411Z,3.99
2019-03-02T17:19:24.358Z,3.99
2019-03-02T17:22:18.050Z,4.00
2019-03-02T17:25:22.450Z,3.95
2019-03-02T17:28:23.698Z,3.93
2019-03-02T17:31:20.392Z,3.92
2019-03-02T17:34:15.463Z,3.87
2019-03-02T17:37:15.461Z,3.84
2019-03-02T17:40:05.722Z,3.83
2019-03-02T17:42:49.223Z,3.83
2019-03-02T17:45:38.481Z,3.80
2019-03-02T17:48:28.665Z,3.79
2019-03-02T17:51:17.830Z,3.78
2019-03-02T17:54:07.632Z,3.78
2019-03-02T17:57:05.776Z,3.78
2019-03-02T18:00:05.909Z,3.74
2019-03-02T18:02:52.217Z,3.71
2019-03-02T18:05:47.620Z,3.68
2019-03-02T18:08:48.551Z,3.64
2019-03-02T18:11:50.342Z,3.63
2019-03-02T18:14:30.488Z,3.60
2019-03-02T18:17:19.065Z,3.55
2019-03-02T18:19:50.374Z,3.58
2019-03-02T18:22:21.036Z,3.58
2019-03-02T18:24:51.652Z,3.59
2019-03-02T18:27:21.946Z,3.63
2019-03-02T18:29:53.816Z,3.63
2019-03-02T18:32:24.407Z,3.56
2019-03-02T18:34:56.791Z,3.55
2019-03-02T18:37:30.553Z,3.58
2019-03-02T18:40:03.055Z,3.60
2019-03-02T18:42:34.359Z,3.53
2019-03-02T18:45:04.988Z,3.47
2019-03-02T18:47:35.542Z,3.48
2019-03-02T18:50:12.801Z,3.44
2019-03-02T18:53:08.139Z,3.41
2019-03-02T18:55:38.702Z,3.44
2019-03-02T18:58:10.038Z,3.41
2019-03-02T19:00:44.293Z,3.39
2019-03-02T19:03:14.984Z,3.34
2019-03-02T19:05:50.243Z,3.35
2019-03-02T19:08:21.447Z,3.35
2019-03-02T19:10:51.989Z,3.33
2019-03-02T19:13:22.956Z,3.28
2019-03-02T19:15:55.143Z,3.32
2019-03-02T19:18:25.651Z,3.33
2019-03-02T19:20:58.223Z,3.35
2019-03-02T19:23:28.548Z,3.32
2019-03-02T19:26:00.664Z,3.27
2019-03-02T19:28:31.077Z,3.26
2019-03-02T19:31:01.957Z,3.23
2019-03-02T19:33:32.658Z,3.18
2019-03-02T19:36:04.198Z,3.16
2019-03-02T19:38:34.674Z,3.18
2019-03-02T19:41:05.560Z,3.18
2019-03-02T19:43:36.433Z,3.15
2019-03-02T19:46:07.357Z,3.17
2019-03-02T19:48:37.892Z,3.14
2019-03-02T19:51:08.590Z,3.13
2019-03-02T19:53:39.264Z,3.10
2019-03-02T19:56:09.617Z,3.09
2019-03-02T19:58:40.081Z,3.05
2019-03-02T20:01:10.680Z,3.04
2019-03-02T20:03:41.373Z,2.98
2019-03-02T20:06:11.996Z,2.94
2019-03-02T20:08:42.306Z,2.92
2019-03-02T20:11:13.436Z,2.89
2019-03-02T20:13:43.855Z,2.85
2019-03-02T20:16:14.815Z,2.85
2019-03-02T20:18:45.757Z,2.89
2019-03-02T20:21:16.827Z,2.94
2019-03-02T20:23:47.349Z,2.95
2019-03-02T20:26:18.121Z,2.91
2019-03-02T20:28:48.660Z,2.88
2019-03-02T20:31:19.367Z,2.86
2019-03-02T20:33:49.982Z,2.78
2019-03-02T20:36:20.963Z,2.82
2019-03-02T20:38:52.857Z,2.83
2019-03-02T20:41:23.475Z,2.87
2019-03-02T20:43:54.578Z,2.86
2019-03-02T20:46:25.006Z,2.89
2019-03-02T20:48:56.584Z,2.84
2019-03-02T20:51:27.608Z,2.80
2019-03-02T20:53:57.925Z,2.77
2019-03-02T20:56:29.071Z,2.74
2019-03-02T20:58:59.737Z,2.76
2019-03-02T21:01:30.351Z,2.76
2019-03-02T21:04:02.610Z,2.69
2019-03-02T21:06:33.183Z,2.69
2019-03-02T21:09:04.570Z,2.80
2019-03-02T21:11:36.605Z,2.83
2019-03-02T21:14:07.189Z,2.80
2019-03-02T21:16:37.572Z,2.67
2019-03-02T21:19:08.802Z,2.65
2019-03-02T21:21:39.175Z,2.64
2019-03-02T21:24:09.605Z,2.59
2019-03-02T21:26:41.159Z,2.51
2019-03-02T21:29:11.940Z,2.62
2019-03-02T21:31:42.454Z,2.67
2019-03-02T21:34:13.118Z,2.62
2019-03-02T21:36:43.875Z,2.61
2019-03-02T21:39:14.864Z,2.60
2019-03-02T21:41:45.295Z,2.66
2019-03-02T21:44:15.697Z,2.66
2019-03-02T21:46:46.786Z,2.65
2019-03-02T21:49:17.525Z,2.55
2019-03-02T21:51:48.422Z,2.52
2019-03-02T21:54:19.159Z,2.44
2019-03-02T21:56:52.004Z,2.44
2019-03-02T21:59:22.789Z,2.38
2019-03-02T22:01:53.696Z,2.44
2019-03-02T22:04:24.487Z,2.42
2019-03-02T22:06:55.610Z,2.47
2019-03-02T22:09:26.319Z,2.52
2019-03-02T22:11:56.855Z,2.52
2019-03-02T22:14:31.238Z,2.55
2019-03-02T22:17:03.349Z,2.57
2019-03-02T22:19:33.760Z,2.58
2019-03-02T22:22:04.736Z,2.54
2019-03-02T22:24:35.121Z,2.59
2019-03-02T22:27:05.562Z,2.64
2019-03-02T22:29:36.057Z,2.64
2019-03-02T22:32:06.522Z,2.70
2019-03-02T22:34:36.959Z,2.69
2019-03-02T22:37:07.734Z,2.68
2019-03-02T22:39:38.390Z,2.67
2019-03-02T22:42:08.946Z,2.68
2019-03-02T22:44:39.534Z,2.64
2019-03-02T22:47:10.695Z,2.77
2019-03-02T22:49:41.969Z,2.73
2019-03-02T22:52:12.830Z,2.72
2019-03-02T22:54:43.474Z,2.77
2019-03-02T22:57:13.988Z,2.78
2019-03-02T23:00:21.148Z,2.73
2019-03-02T23:02:49.224Z,2.67
2019-03-02T23:05:20.020Z,2.64
2019-03-02T23:07:50.659Z,2.57
2019-03-02T23:10:21.087Z,2.56
2019-03-02T23:12:52.067Z,2.54
2019-03-02T23:15:23.007Z,2.51
2019-03-02T23:17:53.755Z,2.53
2019-03-02T23:20:24.395Z,2.49
2019-03-02T23:22:54.992Z,2.46
2019-03-02T23:25:25.540Z,2.45
2019-03-02T23:27:56.074Z,2.46
2019-03-02T23:30:26.674Z,2.48
2019-03-02T23:32:57.430Z,2.50
2019-03-02T23:35:27.885Z,2.47
2019-03-02T23:37:58.690Z,2.46
2019-03-02T23:40:29.438Z,2.48
2019-03-02T23:43:00.128Z,2.46
2019-03-02T23:45:31.131Z,2.50
2019-03-02T23:48:02.154Z,2.49
2019-03-02T23:50:32.765Z,2.48
2019-03-02T23:53:03.656Z,2.41
2019-03-02T23:55:34.074Z,2.43
2019-03-02T23:58:06.086Z,2.41
